createdAt,value
2022-07-27T00:01:05.309Z,19.25
2022-07-27T00:03:33.094Z,19.30
2022-07-27T00:06:00.925Z,19.36
2022-07-27T00:08:28.863Z,19.35
2022-07-27T00:10:57.400Z,19.35
2022-07-27T00:13:25.212Z,19.33
2022-07-27T00:15:57.962Z,19.35
2022-07-27T00:18:25.777Z,19.34
2022-07-27T00:20:55.266Z,19.38
2022-07-27T00:23:23.078Z,19.38
2022-07-27T00:25:50.687Z,19.36
2022-07-27T00:28:23.382Z,19.33
2022-07-27T00:30:51.130Z,19.31
2022-07-27T00:33:18.708Z,19.26
2022-07-27T00:35:46.742Z,19.27
2022-07-27T00:38:16.686Z,19.29
2022-07-27T00:40:44.328Z,19.29
2022-07-27T00:43:12.198Z,19.21
2022-07-27T00:45:40.200Z,19.18
2022-07-27T00:48:08.073Z,19.14
2022-07-27T00:50:37.738Z,19.21
2022-07-27T00:53:05.433Z,19.14
2022-07-27T00:55:34.539Z,19.14
2022-07-27T00:58:06.288Z,19.05
2022-07-27T01:00:37.316Z,19.03
2022-07-27T01:03:08.949Z,19.02
2022-07-27T01:05:43.201Z,19.04
2022-07-27T01:08:14.427Z,19.05
2022-07-27T01:10:44.627Z,18.97
2022-07-27T01:13:13.468Z,18.94
2022-07-27T01:15:43.086Z,18.94
2022-07-27T01:18:28.525Z,18.88
2022-07-27T01:20:58.545Z,18.74
2022-07-27T01:23:27.505Z,18.78
2022-07-27T01:25:56.055Z,18.76
2022-07-27T01:28:25.054Z,18.71
2022-07-27T01:30:53.497Z,18.69
2022-07-27T01:33:28.060Z,18.68
2022-07-27T01:35:57.450Z,18.71
2022-07-27T01:38:25.727Z,18.63
2022-07-27T01:40:54.554Z,18.63
2022-07-27T01:43:23.716Z,18.62
2022-07-27T01:45:51.452Z,18.59
2022-07-27T01:48:19.284Z,18.55
2022-07-27T01:50:47.965Z,18.51
2022-07-27T01:53:15.749Z,18.50
2022-07-27T01:55:43.695Z,18.45
2022-07-27T01:58:12.263Z,18.44
2022-07-27T02:00:40.845Z,18.44
2022-07-27T02:03:10.154Z,18.42
2022-07-27T02:05:39.298Z,18.45
2022-07-27T02:08:09.807Z,18.45
2022-07-27T02:10:58.670Z,18.52
2022-07-27T02:13:26.494Z,18.51
2022-07-27T02:15:57.230Z,18.41
2022-07-27T02:18:36.376Z,18.37
2022-07-27T02:21:06.630Z,18.28
2022-07-27T02:23:35.628Z,18.30
2022-07-27T02:26:04.618Z,18.31
2022-07-27T02:28:32.687Z,18.31
2022-07-27T02:31:00.915Z,18.34
2022-07-27T02:33:28.767Z,18.39
2022-07-27T02:35:56.425Z,18.38
2022-07-27T02:38:24.146Z,18.40
2022-07-27T02:40:52.604Z,18.40
2022-07-27T02:43:20.713Z,18.44
2022-07-27T02:45:48.690Z,18.50
2022-07-27T02:48:16.521Z,18.41
2022-07-27T02:50:44.771Z,18.44
2022-07-27T02:53:12.487Z,18.37
2022-07-27T02:55:40.301Z,18.38
2022-07-27T02:58:08.204Z,18.40
2022-07-27T03:00:35.862Z,18.42
2022-07-27T03:03:04.031Z,18.41
2022-07-27T03:05:31.675Z,18.44
2022-07-27T03:08:04.228Z,18.51
2022-07-27T03:10:32.808Z,18.52
2022-07-27T03:13:02.030Z,18.53
2022-07-27T03:15:29.973Z,18.47
2022-07-27T03:17:58.554Z,18.48
2022-07-27T03:20:26.482Z,18.51
2022-07-27T03:22:54.899Z,18.48
2022-07-27T03:25:23.407Z,18.52
2022-07-27T03:27:51.153Z,18.53
2022-07-27T03:30:19.220Z,18.57
2022-07-27T03:32:48.410Z,18.63
2022-07-27T03:35:16.142Z,18.63
2022-07-27T03:37:43.743Z,18.69
2022-07-27T03:40:12.205Z,18.73
2022-07-27T03:42:39.931Z,18.79
2022-07-27T03:45:08.679Z,18.80
2022-07-27T03:47:36.418Z,18.83
2022-07-27T03:50:05.089Z,18.83
2022-07-27T03:52:34.451Z,18.84
2022-07-27T03:55:02.170Z,18.93
2022-07-27T03:57:31.085Z,18.98
2022-07-27T03:59:59.061Z,19.06
2022-07-27T04:02:27.112Z,19.10
2022-07-27T04:04:54.771Z,19.12
2022-07-27T04:07:22.498Z,19.19
2022-07-27T04:09:50.722Z,19.29
2022-07-27T04:12:20.189Z,19.32
2022-07-27T04:14:49.036Z,19.37
2022-07-27T04:17:53.609Z,19.41
2022-07-27T04:20:06.298Z,19.45
2022-07-27T04:22:35.125Z,19.54
2022-07-27T04:25:03.294Z,19.55
2022-07-27T04:27:31.219Z,19.58
2022-07-27T04:29:58.847Z,19.55
2022-07-27T04:32:26.538Z,19.59
2022-07-27T04:34:54.157Z,19.57
2022-07-27T04:37:22.740Z,19.55
2022-07-27T04:39:50.483Z,19.58
2022-07-27T04:42:18.447Z,19.54
2022-07-27T04:44:46.130Z,19.61
2022-07-27T04:47:13.665Z,19.58
2022-07-27T04:49:41.234Z,19.60
2022-07-27T04:52:08.996Z,19.72
2022-07-27T04:54:36.667Z,19.73
2022-07-27T04:57:04.386Z,19.73
2022-07-27T04:59:32.366Z,19.74
2022-07-27T05:01:59.923Z,19.75
2022-07-27T05:04:27.724Z,19.78
2022-07-27T05:07:00.450Z,19.78
2022-07-27T05:09:28.365Z,19.85
2022-07-27T05:11:55.958Z,19.94
2022-07-27T05:14:24.862Z,19.99
2022-07-27T05:16:54.114Z,20.03
2022-07-27T05:19:22.620Z,20.08
2022-07-27T05:22:09.386Z,20.16
2022-07-27T05:24:37.046Z,20.17
2022-07-27T05:27:06.107Z,20.21
2022-07-27T05:29:33.890Z,20.25
2022-07-27T05:32:01.571Z,20.35
2022-07-27T05:34:29.485Z,20.34
2022-07-27T05:36:57.417Z,20.41
2022-07-27T05:39:25.119Z,20.48
2022-07-27T05:41:52.793Z,20.61
2022-07-27T05:44:20.482Z,20.59
2022-07-27T05:46:48.084Z,20.66
2022-07-27T05:49:17.636Z,20.78
2022-07-27T05:51:45.394Z,20.86
2022-07-27T05:54:13.023Z,20.98
2022-07-27T05:56:41.424Z,21.10
2022-07-27T05:59:09.322Z,21.15
2022-07-27T06:01:38.218Z,21.18
2022-07-27T06:04:06.365Z,21.26
2022-07-27T06:06:54.039Z,21.36
2022-07-27T06:09:21.789Z,21.47
2022-07-27T06:11:49.961Z,21.46
2022-07-27T06:14:17.586Z,21.51
2022-07-27T06:16:47.887Z,21.55
2022-07-27T06:19:15.913Z,21.58
2022-07-27T06:21:45.695Z,21.62
2022-07-27T06:24:16.203Z,21.67
2022-07-27T06:26:44.489Z,21.69
2022-07-27T06:29:13.081Z,21.74
2022-07-27T06:31:41.273Z,21.79
2022-07-27T06:34:12.390Z,21.87
2022-07-27T06:36:45.302Z,21.99
2022-07-27T06:39:13.714Z,22.13
2022-07-27T06:41:41.833Z,22.22
2022-07-27T06:44:14.289Z,22.29
2022-07-27T06:46:42.670Z,22.38
2022-07-27T06:49:11.688Z,22.44
2022-07-27T06:51:39.956Z,22.53
2022-07-27T06:54:07.595Z,22.59
2022-07-27T06:56:35.513Z,22.67
2022-07-27T06:59:03.215Z,22.75
2022-07-27T07:01:31.120Z,22.86
2022-07-27T07:03:59.950Z,22.98
2022-07-27T07:06:28.278Z,23.02
2022-07-27T07:08:56.158Z,23.04
2022-07-27T07:11:23.770Z,23.08
2022-07-27T07:13:51.473Z,23.27
2022-07-27T07:16:19.195Z,23.26
2022-07-27T07:18:52.255Z,23.34
2022-07-27T07:21:21.077Z,23.36
2022-07-27T07:23:49.170Z,23.49
2022-07-27T07:26:19.552Z,23.57
2022-07-27T07:28:47.247Z,23.69
2022-07-27T07:31:14.917Z,23.69
2022-07-27T07:33:42.910Z,23.62
2022-07-27T07:36:12.823Z,23.67
2022-07-27T07:38:44.307Z,23.86
2022-07-27T07:41:12.720Z,23.93
2022-07-27T07:43:42.282Z,23.98
2022-07-27T07:46:10.124Z,24.14
2022-07-27T07:48:39.641Z,24.19
2022-07-27T07:51:08.064Z,24.38
2022-07-27T07:53:41.174Z,24.50
2022-07-27T07:56:09.482Z,24.57
2022-07-27T07:58:37.283Z,24.60
2022-07-27T08:01:04.893Z,24.58
2022-07-27T08:03:32.728Z,24.68
2022-07-27T08:06:01.745Z,24.65
2022-07-27T08:08:30.834Z,24.79
2022-07-27T08:10:58.481Z,24.77
2022-07-27T08:13:26.696Z,24.85
2022-07-27T08:15:54.434Z,24.89
2022-07-27T08:18:25.362Z,25.03
2022-07-27T08:20:53.795Z,25.00
2022-07-27T08:23:21.992Z,25.17
2022-07-27T08:25:49.853Z,25.34
2022-07-27T08:28:17.988Z,25.44
2022-07-27T08:30:46.836Z,25.46
2022-07-27T08:33:14.434Z,25.51
2022-07-27T08:35:42.017Z,25.48
2022-07-27T08:38:09.848Z,25.52
2022-07-27T08:40:41.788Z,25.77
2022-07-27T08:43:13.144Z,25.69
2022-07-27T08:45:42.087Z,25.61
2022-07-27T08:48:14.015Z,25.71
2022-07-27T08:50:42.909Z,25.76
2022-07-27T08:53:13.623Z,25.79
2022-07-27T08:55:43.973Z,25.93
2022-07-27T08:58:13.950Z,26.09
2022-07-27T09:00:48.361Z,25.99
2022-07-27T09:03:20.704Z,26.09
2022-07-27T09:05:53.033Z,26.16
2022-07-27T09:08:25.532Z,26.17
2022-07-27T09:10:56.338Z,26.25
2022-07-27T09:13:31.802Z,26.39
2022-07-27T09:16:18.240Z,26.55
2022-07-27T09:18:48.327Z,26.63
2022-07-27T09:21:22.542Z,26.76
2022-07-27T09:23:53.915Z,26.69
2022-07-27T09:26:33.142Z,26.88
2022-07-27T09:29:03.233Z,26.80
2022-07-27T09:31:32.382Z,26.94
2022-07-27T09:34:02.209Z,26.91
2022-07-27T09:36:34.287Z,26.83
2022-07-27T09:39:05.735Z,26.96
2022-07-27T09:41:45.962Z,26.90
2022-07-27T09:44:42.963Z,26.94
2022-07-27T09:47:29.626Z,26.96
2022-07-27T09:50:16.582Z,27.02
2022-07-27T09:52:45.561Z,27.04
2022-07-27T09:55:13.290Z,27.20
2022-07-27T09:57:55.924Z,27.26
2022-07-27T10:00:25.860Z,27.50
2022-07-27T10:02:53.949Z,27.45
2022-07-27T10:05:23.182Z,27.49
2022-07-27T10:07:53.502Z,27.55
2022-07-27T10:10:23.012Z,27.32
2022-07-27T10:12:55.238Z,27.23
2022-07-27T10:15:24.920Z,27.20
2022-07-27T10:18:15.548Z,27.29
2022-07-27T10:20:47.826Z,27.30
2022-07-27T10:23:27.401Z,27.35
2022-07-27T10:26:17.675Z,27.60
2022-07-27T10:28:54.016Z,27.64
2022-07-27T10:31:25.366Z,27.74
2022-07-27T10:33:55.462Z,27.75
2022-07-27T10:36:23.106Z,27.85
2022-07-27T10:38:53.644Z,27.90
2022-07-27T10:41:25.386Z,28.01
2022-07-27T10:44:15.234Z,28.01
2022-07-27T10:46:50.918Z,28.07
2022-07-27T10:49:40.749Z,28.02
2022-07-27T10:52:48.313Z,28.12
2022-07-27T10:55:35.513Z,28.13
2022-07-27T10:58:03.159Z,28.17
2022-07-27T11:00:53.722Z,28.12
2022-07-27T11:03:34.832Z,27.87
2022-07-27T11:06:33.020Z,28.18
2022-07-27T11:10:00.003Z,28.22
2022-07-27T11:11:54.618Z,28.44
2022-07-27T11:14:30.748Z,28.62
2022-07-27T11:17:39.831Z,28.53
2022-07-27T11:19:59.234Z,28.38
2022-07-27T11:23:14.006Z,28.42
2022-07-27T11:25:26.634Z,28.38
2022-07-27T11:27:54.366Z,28.41
2022-07-27T11:30:27.404Z,28.58
2022-07-27T11:32:56.342Z,28.41
2022-07-27T11:35:27.294Z,28.36
2022-07-27T11:38:01.318Z,28.39
2022-07-27T11:43:33.593Z,28.49
2022-07-27T11:46:23.450Z,28.42
2022-07-27T11:49:17.491Z,28.65
2022-07-27T11:51:48.123Z,28.70
2022-07-27T11:54:24.677Z,28.76
2022-07-27T11:56:57.652Z,28.84
2022-07-27T11:59:33.451Z,28.96
2022-07-27T12:02:07.710Z,29.04
2022-07-27T12:04:38.590Z,29.10
2022-07-27T12:07:24.056Z,29.16
2022-07-27T12:09:54.690Z,29.24
2022-07-27T12:12:30.649Z,29.12
2022-07-27T12:15:16.358Z,29.21
2022-07-27T12:17:56.191Z,29.01
2022-07-27T12:20:32.369Z,29.19
2022-07-27T12:23:08.531Z,29.40
2022-07-27T12:25:39.111Z,29.33
2022-07-27T12:28:15.616Z,29.54
2022-07-27T12:30:49.449Z,29.70
2022-07-27T12:33:28.290Z,29.67
2022-07-27T12:35:57.887Z,29.61
2022-07-27T12:38:25.854Z,29.63
2022-07-27T12:41:00.547Z,29.77
2022-07-27T12:43:29.594Z,29.82
2022-07-27T12:45:57.307Z,29.28
2022-07-27T12:48:28.178Z,28.97
2022-07-27T12:51:01.708Z,28.50
2022-07-27T12:53:31.489Z,28.34
2022-07-27T12:56:04.161Z,28.33
2022-07-27T12:58:32.078Z,28.64
2022-07-27T13:01:00.113Z,28.78
2022-07-27T13:03:28.279Z,29.09
2022-07-27T13:05:55.916Z,29.24
2022-07-27T13:08:24.092Z,29.00
2022-07-27T13:10:53.838Z,29.15
2022-07-27T13:13:24.985Z,29.55
2022-07-27T13:15:55.371Z,29.82
2022-07-27T13:18:24.151Z,30.07
2022-07-27T13:20:52.251Z,30.31
2022-07-27T13:23:20.887Z,30.24
2022-07-27T13:25:49.032Z,30.14
2022-07-27T13:28:16.718Z,30.09
2022-07-27T13:30:44.356Z,30.20
2022-07-27T13:33:12.512Z,30.14
2022-07-27T13:35:42.698Z,30.16
2022-07-27T13:38:16.088Z,30.10
2022-07-27T13:40:45.430Z,30.19
2022-07-27T13:43:13.903Z,30.34
2022-07-27T13:45:43.432Z,30.37
2022-07-27T13:48:12.264Z,30.49
2022-07-27T13:50:41.537Z,30.45
2022-07-27T13:53:09.441Z,30.53
2022-07-27T13:55:44.847Z,30.54
2022-07-27T13:58:13.058Z,30.49
2022-07-27T14:00:41.172Z,30.54
2022-07-27T14:03:11.380Z,30.56
2022-07-27T14:05:46.751Z,30.40
2022-07-27T14:08:19.186Z,30.38
2022-07-27T14:10:46.978Z,30.28
2022-07-27T14:13:16.397Z,30.22
2022-07-27T14:15:50.588Z,30.01
2022-07-27T14:18:24.616Z,29.86
2022-07-27T14:20:52.959Z,30.10
2022-07-27T14:23:21.101Z,30.33
2022-07-27T14:25:48.905Z,30.19
2022-07-27T14:28:17.578Z,30.16
2022-07-27T14:30:46.688Z,30.25
2022-07-27T14:33:15.015Z,30.60
2022-07-27T14:35:44.347Z,30.83
2022-07-27T14:38:12.323Z,30.75
2022-07-27T14:40:40.704Z,30.84
2022-07-27T14:43:09.371Z,30.82
2022-07-27T14:45:45.071Z,30.92
2022-07-27T14:48:22.724Z,31.13
2022-07-27T14:50:53.399Z,31.25
2022-07-27T14:53:21.363Z,31.42
2022-07-27T14:55:49.003Z,31.38
2022-07-27T14:58:17.195Z,31.46
2022-07-27T15:00:45.200Z,31.65
2022-07-27T15:03:14.778Z,32.08
2022-07-27T15:05:49.762Z,32.51
2022-07-27T15:08:24.659Z,32.80
2022-07-27T15:10:52.490Z,33.64
2022-07-27T15:13:20.712Z,33.57
2022-07-27T15:15:48.914Z,33.60
2022-07-27T15:18:21.130Z,33.50
2022-07-27T15:20:48.873Z,33.28
2022-07-27T15:23:16.770Z,33.30
2022-07-27T15:25:45.058Z,33.06
2022-07-27T15:28:12.963Z,33.66
2022-07-27T15:30:40.852Z,33.17
2022-07-27T15:33:09.465Z,33.07
2022-07-27T15:35:38.157Z,33.06
2022-07-27T15:38:06.017Z,33.45
2022-07-27T15:40:37.368Z,33.77
2022-07-27T15:43:07.592Z,33.85
2022-07-27T15:45:41.168Z,33.70
2022-07-27T15:48:10.970Z,33.43
2022-07-27T15:50:40.580Z,33.43
2022-07-27T15:53:09.082Z,33.17
2022-07-27T15:55:39.286Z,33.03
2022-07-27T15:58:07.553Z,33.34
2022-07-27T16:00:40.451Z,32.75
2022-07-27T16:03:10.683Z,31.89
2022-07-27T16:05:40.105Z,30.94
2022-07-27T16:08:09.842Z,30.42
2022-07-27T16:10:39.225Z,30.02
2022-07-27T16:13:08.254Z,30.04
2022-07-27T16:15:56.298Z,29.77
2022-07-27T16:18:24.048Z,29.31
2022-07-27T16:20:52.748Z,28.92
2022-07-27T16:23:22.242Z,28.71
2022-07-27T16:26:07.870Z,28.56
2022-07-27T16:28:40.872Z,28.34
2022-07-27T16:31:11.271Z,28.25
2022-07-27T16:33:39.560Z,28.19
2022-07-27T16:36:08.838Z,28.10
2022-07-27T16:38:49.735Z,28.10
2022-07-27T16:41:22.625Z,28.01
2022-07-27T16:43:50.408Z,27.96
2022-07-27T16:46:18.489Z,27.84
2022-07-27T16:48:46.248Z,27.74
2022-07-27T16:51:15.476Z,27.82
2022-07-27T16:53:46.251Z,27.73
2022-07-27T16:56:16.952Z,27.57
2022-07-27T16:58:45.251Z,27.54
2022-07-27T17:01:21.861Z,27.57
2022-07-27T17:03:56.519Z,27.59
2022-07-27T17:06:25.999Z,27.52
2022-07-27T17:08:54.261Z,27.52
2022-07-27T17:11:22.546Z,27.38
2022-07-27T17:13:51.145Z,27.37
2022-07-27T17:16:28.367Z,27.32
2022-07-27T17:18:58.444Z,27.21
2022-07-27T17:21:26.098Z,27.18
2022-07-27T17:23:53.934Z,27.08
2022-07-27T17:26:22.480Z,26.99
2022-07-27T17:28:52.482Z,26.93
2022-07-27T17:31:21.446Z,26.87
2022-07-27T17:33:50.405Z,26.82
2022-07-27T17:36:18.632Z,26.79
2022-07-27T17:38:48.851Z,26.89
2022-07-27T17:41:23.705Z,26.87
2022-07-27T17:43:55.115Z,26.91
2022-07-27T17:46:24.743Z,26.84
2022-07-27T17:48:54.185Z,26.76
2022-07-27T17:51:23.277Z,26.72
2022-07-27T17:53:51.584Z,26.64
2022-07-27T17:56:19.302Z,26.60
2022-07-27T17:58:48.244Z,26.55
2022-07-27T18:01:16.106Z,26.48
2022-07-27T18:03:44.113Z,26.44
2022-07-27T18:06:11.887Z,26.31
2022-07-27T18:08:39.667Z,26.27
2022-07-27T18:11:12.187Z,26.20
2022-07-27T18:13:40.579Z,26.12
2022-07-27T18:16:13.441Z,26.06
2022-07-27T18:18:42.947Z,26.03
2022-07-27T18:21:11.121Z,26.00
2022-07-27T18:23:39.977Z,26.12
2022-07-27T18:26:09.991Z,26.35
2022-07-27T18:28:40.122Z,26.36
2022-07-27T18:31:10.841Z,26.36
2022-07-27T18:33:40.588Z,26.26
2022-07-27T18:36:08.345Z,26.19
2022-07-27T18:38:36.787Z,26.15
2022-07-27T18:41:04.462Z,26.12
2022-07-27T18:43:32.067Z,26.07
2022-07-27T18:46:00.935Z,26.07
2022-07-27T18:48:28.917Z,26.04
2022-07-27T18:50:56.916Z,26.00
2022-07-27T18:53:25.165Z,25.95
2022-07-27T18:55:56.202Z,25.83
2022-07-27T18:58:25.372Z,25.78
2022-07-27T19:00:54.961Z,25.74
2022-07-27T19:03:24.626Z,25.72
2022-07-27T19:05:55.867Z,25.70
2022-07-27T19:08:24.410Z,25.67
2022-07-27T19:10:53.031Z,25.60
2022-07-27T19:13:21.749Z,25.58
2022-07-27T19:15:49.503Z,25.52
2022-07-27T19:18:25.242Z,25.50
2022-07-27T19:20:56.477Z,25.47
2022-07-27T19:23:25.571Z,25.42
2022-07-27T19:25:59.258Z,25.37
2022-07-27T19:28:27.787Z,25.33
2022-07-27T19:30:55.497Z,25.29
2022-07-27T19:33:23.176Z,25.23
2022-07-27T19:35:52.681Z,25.16
2022-07-27T19:38:20.552Z,25.15
2022-07-27T19:40:48.143Z,25.15
2022-07-27T19:43:16.578Z,25.09
2022-07-27T19:45:44.751Z,25.05
2022-07-27T19:48:12.639Z,24.98
2022-07-27T19:50:40.963Z,24.98
2022-07-27T19:53:08.863Z,24.92
2022-07-27T19:55:36.684Z,24.89
2022-07-27T19:58:04.372Z,24.85
2022-07-27T20:00:32.789Z,24.84
2022-07-27T20:03:02.211Z,24.79
2022-07-27T20:05:30.034Z,24.72
2022-07-27T20:07:58.075Z,24.70
2022-07-27T20:10:26.108Z,24.68
2022-07-27T20:12:54.124Z,24.70
2022-07-27T20:15:22.592Z,24.62
2022-07-27T20:17:51.035Z,24.54
2022-07-27T20:20:20.019Z,24.53
2022-07-27T20:22:48.189Z,24.48
2022-07-27T20:25:16.281Z,24.43
2022-07-27T20:27:45.354Z,24.37
2022-07-27T20:30:20.115Z,24.36
2022-07-27T20:32:49.430Z,24.37
2022-07-27T20:35:17.952Z,24.28
2022-07-27T20:37:47.405Z,24.26
2022-07-27T20:40:16.093Z,24.25
2022-07-27T20:42:44.976Z,24.24
2022-07-27T20:45:14.649Z,24.21
2022-07-27T20:47:43.409Z,24.19
2022-07-27T20:50:13.213Z,24.15
2022-07-27T20:52:43.163Z,24.14
2022-07-27T20:55:11.438Z,24.16
2022-07-27T20:57:39.189Z,24.11
2022-07-27T21:00:07.864Z,24.08
2022-07-27T21:02:36.052Z,24.05
2022-07-27T21:05:05.134Z,24.10
2022-07-27T21:07:33.135Z,24.15
2022-07-27T21:10:00.760Z,24.08
2022-07-27T21:12:28.415Z,23.96
2022-07-27T21:14:58.363Z,23.90
2022-07-27T21:17:26.408Z,23.91
2022-07-27T21:19:54.144Z,23.97
2022-07-27T21:22:21.994Z,23.94
2022-07-27T21:24:49.782Z,23.93
2022-07-27T21:27:20.833Z,23.88
2022-07-27T21:29:49.268Z,23.81
2022-07-27T21:32:18.278Z,23.78
2022-07-27T21:34:46.138Z,23.80
2022-07-27T21:37:14.139Z,23.74
2022-07-27T21:39:42.238Z,23.74
2022-07-27T21:42:10.011Z,23.74
2022-07-27T21:44:39.480Z,23.73
2022-07-27T21:47:13.147Z,23.68
2022-07-27T21:49:41.908Z,23.65
2022-07-27T21:52:11.309Z,23.63
2022-07-27T21:54:39.223Z,23.58
2022-07-27T21:57:07.650Z,23.65
2022-07-27T21:59:36.187Z,23.58
2022-07-27T22:02:03.862Z,23.61
2022-07-27T22:04:31.591Z,23.55
2022-07-27T22:06:59.376Z,23.50
2022-07-27T22:09:27.161Z,23.42
2022-07-27T22:11:56.457Z,23.36
2022-07-27T22:14:24.573Z,23.41
2022-07-27T22:16:56.701Z,23.31
2022-07-27T22:19:24.654Z,23.23
2022-07-27T22:21:52.407Z,23.22
2022-07-27T22:24:22.916Z,23.20
2022-07-27T22:26:51.183Z,23.15
2022-07-27T22:29:18.871Z,23.14
2022-07-27T22:31:47.261Z,23.15
2022-07-27T22:34:15.299Z,23.10
2022-07-27T22:36:43.580Z,23.13
2022-07-27T22:39:12.957Z,23.12
2022-07-27T22:41:41.484Z,23.08
2022-07-27T22:44:09.688Z,23.05
2022-07-27T22:46:37.859Z,22.99
2022-07-27T22:49:05.554Z,22.96
2022-07-27T22:51:49.741Z,22.95
2022-07-27T22:54:20.948Z,22.97
2022-07-27T22:56:48.838Z,22.99
2022-07-27T22:59:16.555Z,22.92
2022-07-27T23:01:45.995Z,22.92
2022-07-27T23:04:16.907Z,22.88
2022-07-27T23:06:47.316Z,22.82
2022-07-27T23:09:15.665Z,22.84
2022-07-27T23:11:44.221Z,22.84
2022-07-27T23:14:14.325Z,22.75
2022-07-27T23:16:43.215Z,22.72
2022-07-27T23:19:11.138Z,22.75
2022-07-27T23:21:41.815Z,22.75
2022-07-27T23:24:11.780Z,22.74
2022-07-27T23:26:42.994Z,22.70
2022-07-27T23:29:10.790Z,22.69
2022-07-27T23:31:38.589Z,22.70
2022-07-27T23:34:06.259Z,22.66
2022-07-27T23:36:33.901Z,22.65
2022-07-27T23:39:01.701Z,22.63
2022-07-27T23:41:29.518Z,22.60
2022-07-27T23:43:57.272Z,22.59
2022-07-27T23:46:26.824Z,22.59
2022-07-27T23:48:54.918Z,22.57
2022-07-27T23:51:22.762Z,22.52
2022-07-27T23:53:50.521Z,22.47
2022-07-27T23:56:18.104Z,22.44
2022-07-27T23:58:46.002Z,22.44
